createdAt,value
2022-10-25T00:01:28.716Z,12.46
2022-10-25T00:03:59.282Z,12.61
2022-10-25T00:06:27.666Z,12.41
2022-10-25T00:08:55.731Z,12.44
2022-10-25T00:11:26.032Z,12.41
2022-10-25T00:13:56.154Z,12.49
2022-10-25T00:16:25.972Z,12.39
2022-10-25T00:18:54.736Z,12.30
2022-10-25T00:21:24.606Z,12.25
2022-10-25T00:23:53.681Z,12.27
2022-10-25T00:26:22.652Z,12.29
2022-10-25T00:28:50.706Z,12.40
2022-10-25T00:31:19.635Z,12.63
2022-10-25T00:33:47.826Z,12.71
2022-10-25T00:36:18.194Z,12.77
2022-10-25T00:38:48.246Z,12.81
2022-10-25T00:41:18.793Z,12.88
2022-10-25T00:43:49.087Z,13.00
2022-10-25T00:46:25.264Z,13.00
2022-10-25T00:48:58.195Z,13.06
2022-10-25T00:51:33.142Z,13.09
2022-10-25T00:54:03.063Z,13.09
2022-10-25T00:56:34.734Z,13.07
2022-10-25T00:59:05.650Z,13.01
2022-10-25T01:01:34.186Z,13.01
2022-10-25T01:04:07.308Z,13.06
2022-10-25T01:06:40.261Z,13.03
2022-10-25T01:09:12.538Z,13.00
2022-10-25T01:11:40.594Z,13.00
2022-10-25T01:14:10.769Z,12.98
2022-10-25T01:16:49.678Z,13.00
2022-10-25T01:19:38.395Z,12.95
2022-10-25T01:22:10.150Z,12.87
2022-10-25T01:25:20.437Z,12.59
2022-10-25T01:28:15.045Z,12.28
2022-10-25T01:30:56.355Z,12.37
2022-10-25T01:33:30.977Z,12.35
2022-10-25T01:36:05.878Z,12.36
2022-10-25T01:38:40.792Z,12.23
2022-10-25T01:41:18.670Z,12.35
2022-10-25T01:43:56.819Z,12.41
2022-10-25T01:46:32.614Z,12.59
2022-10-25T01:49:05.719Z,12.55
2022-10-25T01:51:37.350Z,12.61
2022-10-25T01:54:17.921Z,12.66
2022-10-25T01:56:54.478Z,12.74
2022-10-25T01:59:38.881Z,12.70
2022-10-25T02:02:13.412Z,12.76
2022-10-25T02:04:51.694Z,12.74
2022-10-25T02:07:26.665Z,12.76
2022-10-25T02:12:48.636Z,12.78
2022-10-25T02:15:22.974Z,12.73
2022-10-25T02:17:56.111Z,12.71
2022-10-25T02:20:27.073Z,12.76
2022-10-25T02:22:56.775Z,12.68
2022-10-25T02:25:25.086Z,12.80
2022-10-25T02:27:56.468Z,12.76
2022-10-25T02:30:24.795Z,12.81
2022-10-25T02:32:54.245Z,12.66
2022-10-25T02:35:22.424Z,12.69
2022-10-25T02:37:50.537Z,12.70
2022-10-25T02:40:18.860Z,12.69
2022-10-25T02:42:47.221Z,12.58
2022-10-25T02:45:15.366Z,12.69
2022-10-25T02:47:44.007Z,12.76
2022-10-25T02:50:14.120Z,12.74
2022-10-25T02:52:42.313Z,12.74
2022-10-25T02:55:10.759Z,12.76
2022-10-25T02:57:39.617Z,12.74
2022-10-25T03:00:09.507Z,12.69
2022-10-25T03:02:37.614Z,12.68
2022-10-25T03:05:06.255Z,12.63
2022-10-25T03:07:35.713Z,12.59
2022-10-25T03:10:03.768Z,12.41
2022-10-25T03:12:31.842Z,12.43
2022-10-25T03:14:59.995Z,12.31
2022-10-25T03:17:28.425Z,12.38
2022-10-25T03:19:56.465Z,12.36
2022-10-25T03:22:24.538Z,12.39
2022-10-25T03:24:54.389Z,12.41
2022-10-25T03:27:22.477Z,12.41
2022-10-25T03:29:50.527Z,12.35
2022-10-25T03:32:18.685Z,12.35
2022-10-25T03:34:46.678Z,12.35
2022-10-25T03:37:14.821Z,12.37
2022-10-25T03:39:42.917Z,12.37
2022-10-25T03:42:12.419Z,12.40
2022-10-25T03:44:40.763Z,12.42
2022-10-25T03:47:08.929Z,12.42
2022-10-25T03:49:36.993Z,12.41
2022-10-25T03:52:06.926Z,12.40
2022-10-25T03:54:35.988Z,12.39
2022-10-25T03:57:04.663Z,12.38
2022-10-25T03:59:34.214Z,12.35
2022-10-25T04:02:02.734Z,12.26
2022-10-25T04:04:30.953Z,12.29
2022-10-25T04:06:59.140Z,12.25
2022-10-25T04:09:27.292Z,12.20
2022-10-25T04:11:55.779Z,12.17
2022-10-25T04:14:24.704Z,12.15
2022-10-25T04:16:54.692Z,12.15
2022-10-25T04:19:22.660Z,12.13
2022-10-25T04:21:50.808Z,12.15
2022-10-25T04:24:19.133Z,12.14
2022-10-25T04:26:47.215Z,12.04
2022-10-25T04:29:16.120Z,12.01
2022-10-25T04:31:44.504Z,12.01
2022-10-25T04:34:14.337Z,12.01
2022-10-25T04:36:42.958Z,12.02
2022-10-25T04:39:11.349Z,11.97
2022-10-25T04:41:39.663Z,12.01
2022-10-25T04:44:07.877Z,11.92
2022-10-25T04:46:36.275Z,11.96
2022-10-25T04:49:04.704Z,11.99
2022-10-25T04:51:34.817Z,11.97
2022-10-25T04:54:02.957Z,11.99
2022-10-25T04:56:31.674Z,12.00
2022-10-25T04:59:00.962Z,12.01
2022-10-25T05:01:29.371Z,12.00
2022-10-25T05:03:57.885Z,12.06
2022-10-25T05:06:28.061Z,12.05
2022-10-25T05:08:58.042Z,12.13
2022-10-25T05:11:26.831Z,12.09
2022-10-25T05:13:55.073Z,12.10
2022-10-25T05:16:26.018Z,12.17
2022-10-25T05:18:56.112Z,12.21
2022-10-25T05:21:28.978Z,12.27
2022-10-25T05:24:01.641Z,12.24
2022-10-25T05:26:32.330Z,12.28
2022-10-25T05:29:00.717Z,12.27
2022-10-25T05:31:31.239Z,12.37
2022-10-25T05:34:01.019Z,12.44
2022-10-25T05:36:29.949Z,12.47
2022-10-25T05:39:01.042Z,12.52
2022-10-25T05:41:31.903Z,12.56
2022-10-25T05:44:02.786Z,12.62
2022-10-25T05:46:31.446Z,12.69
2022-10-25T05:49:00.708Z,12.75
2022-10-25T05:51:35.340Z,12.88
2022-10-25T05:54:07.152Z,13.02
2022-10-25T05:56:37.377Z,13.13
2022-10-25T05:59:08.971Z,13.25
2022-10-25T06:01:38.358Z,13.38
2022-10-25T06:04:07.807Z,13.52
2022-10-25T06:06:38.231Z,13.55
2022-10-25T06:09:08.773Z,13.73
2022-10-25T06:11:37.208Z,13.90
2022-10-25T06:14:06.053Z,14.11
2022-10-25T06:16:34.404Z,14.33
2022-10-25T06:19:02.996Z,14.47
2022-10-25T06:21:31.226Z,14.69
2022-10-25T06:24:00.488Z,14.87
2022-10-25T06:26:31.300Z,15.09
2022-10-25T06:29:00.970Z,15.21
2022-10-25T06:31:30.495Z,15.34
2022-10-25T06:34:00.333Z,15.50
2022-10-25T06:36:28.908Z,15.56
2022-10-25T06:39:00.671Z,15.73
2022-10-25T06:41:33.041Z,15.94
2022-10-25T06:44:06.203Z,16.08
2022-10-25T06:46:57.821Z,16.26
2022-10-25T06:49:24.941Z,16.42
2022-10-25T06:51:53.002Z,16.59
2022-10-25T06:54:21.190Z,16.59
2022-10-25T06:56:51.577Z,16.81
2022-10-25T06:59:20.733Z,16.92
2022-10-25T07:01:50.343Z,17.11
2022-10-25T07:04:18.602Z,17.34
2022-10-25T07:06:49.953Z,17.52
2022-10-25T07:09:21.202Z,17.77
2022-10-25T07:11:50.718Z,18.00
2022-10-25T07:14:18.930Z,18.06
2022-10-25T07:16:46.982Z,18.32
2022-10-25T07:19:15.893Z,18.37
2022-10-25T07:21:45.310Z,18.63
2022-10-25T07:24:13.889Z,18.76
2022-10-25T07:26:42.029Z,19.00
2022-10-25T07:29:12.251Z,19.16
2022-10-25T07:31:43.421Z,19.22
2022-10-25T07:34:13.917Z,19.33
2022-10-25T07:36:42.541Z,19.33
2022-10-25T07:39:11.060Z,19.42
2022-10-25T07:41:39.233Z,19.42
2022-10-25T07:44:11.729Z,19.74
2022-10-25T07:46:45.022Z,19.88
2022-10-25T07:49:13.451Z,19.96
2022-10-25T07:51:41.506Z,20.09
2022-10-25T07:54:09.894Z,20.17
2022-10-25T07:56:38.054Z,20.27
2022-10-25T07:59:06.299Z,20.43
2022-10-25T08:01:34.534Z,20.35
2022-10-25T08:04:04.092Z,20.24
2022-10-25T08:06:32.152Z,20.25
2022-10-25T08:09:05.564Z,20.32
2022-10-25T08:11:43.959Z,20.39
2022-10-25T08:14:12.171Z,20.29
2022-10-25T08:16:40.302Z,20.37
2022-10-25T08:19:09.914Z,20.34
2022-10-25T08:21:38.077Z,20.39
2022-10-25T08:24:07.150Z,20.43
2022-10-25T08:26:36.987Z,20.63
2022-10-25T08:29:05.541Z,20.88
2022-10-25T08:31:33.655Z,21.05
2022-10-25T08:34:02.193Z,21.23
2022-10-25T08:36:31.909Z,21.46
2022-10-25T08:39:00.050Z,21.56
2022-10-25T08:41:37.174Z,21.82
2022-10-25T08:44:17.618Z,21.84
2022-10-25T08:46:55.757Z,21.98
2022-10-25T08:49:29.508Z,22.02
2022-10-25T08:52:01.959Z,21.96
2022-10-25T08:54:32.384Z,21.93
2022-10-25T08:57:16.285Z,22.02
2022-10-25T08:59:49.065Z,22.19
2022-10-25T09:02:29.498Z,22.30
2022-10-25T09:04:57.790Z,22.24
2022-10-25T09:08:04.373Z,22.37
2022-10-25T09:10:50.185Z,22.46
2022-10-25T09:13:31.320Z,22.48
2022-10-25T09:16:09.529Z,22.48
2022-10-25T09:18:44.532Z,22.41
2022-10-25T09:21:22.665Z,22.42
2022-10-25T09:24:18.359Z,22.64
2022-10-25T09:26:55.589Z,22.75
2022-10-25T09:29:30.196Z,22.92
2022-10-25T09:32:00.149Z,23.08
2022-10-25T09:34:33.129Z,22.97
2022-10-25T09:37:08.098Z,22.99
2022-10-25T09:39:41.749Z,23.12
2022-10-25T09:42:19.629Z,23.11
2022-10-25T09:44:53.631Z,22.96
2022-10-25T09:47:30.289Z,22.75
2022-10-25T09:50:03.290Z,22.80
2022-10-25T09:52:43.126Z,22.75
2022-10-25T09:55:36.503Z,22.88
2022-10-25T09:58:05.337Z,22.65
2022-10-25T10:00:38.167Z,22.57
2022-10-25T10:03:06.261Z,22.51
2022-10-25T10:05:34.510Z,22.43
2022-10-25T10:08:02.564Z,22.46
2022-10-25T10:10:36.291Z,22.33
2022-10-25T10:13:13.537Z,22.08
2022-10-25T10:15:51.354Z,22.22
2022-10-25T10:18:24.566Z,22.10
2022-10-25T10:21:09.446Z,22.10
2022-10-25T10:23:45.753Z,22.16
2022-10-25T10:26:22.661Z,22.21
2022-10-25T10:28:52.658Z,22.20
2022-10-25T10:31:21.085Z,22.06
2022-10-25T10:33:51.188Z,22.09
2022-10-25T10:36:28.812Z,21.93
2022-10-25T10:39:19.933Z,21.86
2022-10-25T10:42:03.529Z,21.73
2022-10-25T10:44:34.770Z,21.71
2022-10-25T10:47:13.189Z,21.73
2022-10-25T10:49:43.571Z,21.50
2022-10-25T10:52:29.450Z,21.19
2022-10-25T10:54:59.009Z,21.28
2022-10-25T10:57:33.118Z,21.31
2022-10-25T11:00:02.707Z,21.13
2022-10-25T11:02:40.872Z,21.25
2022-10-25T11:05:21.961Z,21.38
2022-10-25T11:07:56.716Z,21.49
2022-10-25T11:10:27.685Z,21.40
2022-10-25T11:13:28.486Z,21.28
2022-10-25T11:16:21.981Z,21.31
2022-10-25T11:19:06.746Z,21.35
2022-10-25T11:21:53.691Z,21.25
2022-10-25T11:24:31.365Z,21.39
2022-10-25T11:27:11.155Z,21.46
2022-10-25T11:29:55.189Z,21.50
2022-10-25T11:32:51.271Z,21.86
2022-10-25T11:35:33.175Z,21.94
2022-10-25T11:38:08.440Z,21.97
2022-10-25T11:40:41.978Z,22.01
2022-10-25T11:43:26.749Z,22.20
2022-10-25T11:46:06.031Z,21.87
2022-10-25T11:48:58.245Z,21.87
2022-10-25T11:51:34.554Z,21.96
2022-10-25T11:54:15.262Z,21.89
2022-10-25T11:56:52.773Z,22.01
2022-10-25T11:59:27.708Z,21.87
2022-10-25T12:02:15.098Z,21.97
2022-10-25T12:04:58.284Z,21.95
2022-10-25T12:07:31.795Z,22.08
2022-10-25T12:10:08.769Z,21.89
2022-10-25T12:12:44.617Z,21.95
2022-10-25T12:15:21.358Z,21.97
2022-10-25T12:17:51.957Z,21.96
2022-10-25T12:20:26.195Z,21.93
2022-10-25T12:22:58.364Z,21.70
2022-10-25T12:25:31.190Z,21.67
2022-10-25T12:28:07.028Z,21.80
2022-10-25T12:30:36.981Z,21.90
2022-10-25T12:33:17.180Z,21.85
2022-10-25T12:35:51.038Z,21.92
2022-10-25T12:38:27.453Z,21.97
2022-10-25T12:41:02.343Z,22.02
2022-10-25T12:43:36.488Z,22.01
2022-10-25T12:46:19.817Z,21.83
2022-10-25T12:49:20.211Z,21.93
2022-10-25T12:52:16.378Z,22.16
2022-10-25T12:55:08.565Z,22.27
2022-10-25T12:57:48.212Z,22.07
2022-10-25T13:03:22.002Z,22.09
2022-10-25T13:06:23.498Z,22.06
2022-10-25T13:08:53.884Z,22.15
2022-10-25T13:11:34.570Z,22.11
2022-10-25T13:14:03.775Z,21.97
2022-10-25T13:16:33.587Z,22.09
2022-10-25T13:19:57.725Z,21.95
2022-10-25T13:22:34.137Z,21.93
2022-10-25T13:25:18.937Z,21.85
2022-10-25T13:28:19.393Z,21.90
2022-10-25T13:30:47.880Z,22.04
2022-10-25T13:33:33.870Z,21.99
2022-10-25T13:36:06.461Z,21.84
2022-10-25T13:38:39.635Z,21.78
2022-10-25T13:41:16.615Z,21.73
2022-10-25T13:44:05.509Z,21.64
2022-10-25T13:46:37.431Z,21.58
2022-10-25T13:49:25.099Z,21.46
2022-10-25T13:51:56.886Z,21.27
2022-10-25T13:54:25.856Z,21.29
2022-10-25T13:56:55.854Z,21.29
2022-10-25T13:59:38.925Z,21.23
2022-10-25T14:02:18.799Z,21.22
2022-10-25T14:04:46.985Z,21.25
2022-10-25T14:07:54.422Z,21.43
2022-10-25T14:10:36.727Z,21.44
2022-10-25T14:13:20.666Z,21.50
2022-10-25T14:15:52.650Z,21.37
2022-10-25T14:18:24.471Z,21.26
2022-10-25T14:20:57.727Z,21.00
2022-10-25T14:23:30.718Z,21.03
2022-10-25T14:26:00.626Z,21.08
2022-10-25T14:28:32.434Z,21.06
2022-10-25T14:31:02.302Z,21.01
2022-10-25T14:33:33.826Z,20.94
2022-10-25T14:36:12.023Z,20.71
2022-10-25T14:38:54.224Z,20.66
2022-10-25T14:41:24.573Z,20.51
2022-10-25T14:43:54.619Z,20.63
2022-10-25T14:46:24.182Z,20.54
2022-10-25T14:48:56.730Z,20.39
2022-10-25T14:51:28.823Z,20.44
2022-10-25T14:54:01.860Z,20.34
2022-10-25T14:56:33.706Z,20.40
2022-10-25T14:59:05.767Z,20.51
2022-10-25T15:01:35.313Z,20.41
2022-10-25T15:04:03.992Z,20.44
2022-10-25T15:06:33.789Z,20.21
2022-10-25T15:12:18.200Z,20.06
2022-10-25T15:14:48.515Z,20.09
2022-10-25T15:17:26.330Z,20.01
2022-10-25T15:20:07.690Z,19.87
2022-10-25T15:22:44.803Z,19.59
2022-10-25T15:25:28.335Z,19.68
2022-10-25T15:27:56.424Z,19.85
2022-10-25T15:30:40.865Z,19.61
2022-10-25T15:33:12.443Z,19.42
2022-10-25T15:35:46.656Z,19.35
2022-10-25T15:38:17.542Z,19.39
2022-10-25T15:40:46.223Z,19.53
2022-10-25T15:43:14.297Z,19.34
2022-10-25T15:45:44.218Z,19.26
2022-10-25T15:48:15.922Z,19.16
2022-10-25T15:50:48.863Z,19.17
2022-10-25T15:53:16.953Z,19.12
2022-10-25T15:55:45.970Z,18.96
2022-10-25T15:58:14.351Z,19.00
2022-10-25T16:00:44.697Z,18.87
2022-10-25T16:03:21.452Z,18.85
2022-10-25T16:05:50.858Z,18.82
2022-10-25T16:08:19.330Z,18.77
2022-10-25T16:10:47.978Z,18.80
2022-10-25T16:13:19.395Z,18.78
2022-10-25T16:15:49.094Z,18.85
2022-10-25T16:18:17.160Z,18.86
2022-10-25T16:20:45.233Z,18.86
2022-10-25T16:23:13.407Z,18.74
2022-10-25T16:25:41.417Z,18.74
2022-10-25T16:28:13.533Z,18.51
2022-10-25T16:30:43.122Z,18.60
2022-10-25T16:33:13.803Z,18.62
2022-10-25T16:35:42.491Z,18.60
2022-10-25T16:40:43.753Z,18.57
2022-10-25T16:43:17.431Z,18.42
2022-10-25T16:45:45.585Z,18.32
2022-10-25T16:48:15.468Z,18.30
2022-10-25T16:50:43.855Z,18.24
2022-10-25T16:53:15.118Z,18.01
2022-10-25T16:55:43.475Z,18.09
2022-10-25T16:58:12.646Z,17.98
2022-10-25T17:00:40.807Z,17.94
2022-10-25T17:03:08.888Z,17.91
2022-10-25T17:05:40.108Z,17.99
2022-10-25T17:08:08.508Z,18.05
2022-10-25T17:10:42.413Z,18.01
2022-10-25T17:13:15.874Z,17.98
2022-10-25T17:15:44.530Z,17.97
2022-10-25T17:18:15.927Z,17.68
2022-10-25T17:20:45.534Z,17.37
2022-10-25T17:23:13.700Z,17.37
2022-10-25T17:25:41.783Z,17.41
2022-10-25T17:28:09.835Z,17.46
2022-10-25T17:30:37.774Z,17.45
2022-10-25T17:33:06.059Z,17.45
2022-10-25T17:35:34.119Z,17.48
2022-10-25T17:38:03.617Z,17.68
2022-10-25T17:40:31.727Z,17.50
2022-10-25T17:42:59.804Z,17.55
2022-10-25T17:45:28.327Z,17.69
2022-10-25T17:47:56.370Z,17.83
2022-10-25T17:50:24.802Z,17.62
2022-10-25T17:52:53.536Z,17.67
2022-10-25T17:55:23.009Z,17.65
2022-10-25T17:57:52.002Z,17.65
2022-10-25T18:00:20.445Z,17.76
2022-10-25T18:02:50.877Z,17.85
2022-10-25T18:05:20.959Z,17.58
2022-10-25T18:07:50.528Z,17.40
2022-10-25T18:10:18.994Z,17.56
2022-10-25T18:12:49.405Z,17.61
2022-10-25T18:15:17.934Z,17.57
2022-10-25T18:17:47.040Z,17.60
2022-10-25T18:20:16.066Z,17.38
2022-10-25T18:22:44.234Z,17.39
2022-10-25T18:25:12.588Z,17.30
2022-10-25T18:27:40.677Z,17.40
2022-10-25T18:30:12.539Z,17.38
2022-10-25T18:32:40.683Z,17.31
2022-10-25T18:35:09.533Z,17.28
2022-10-25T18:37:37.595Z,17.27
2022-10-25T18:40:06.655Z,17.22
2022-10-25T18:42:36.676Z,17.23
2022-10-25T18:45:06.133Z,17.30
2022-10-25T18:47:35.945Z,17.34
2022-10-25T18:50:04.026Z,17.31
2022-10-25T18:52:32.081Z,17.42
2022-10-25T18:55:00.142Z,17.24
2022-10-25T18:57:30.920Z,17.17
2022-10-25T18:59:59.119Z,17.14
2022-10-25T19:02:27.438Z,17.14
2022-10-25T19:04:57.385Z,17.20
2022-10-25T19:07:25.483Z,17.26
2022-10-25T19:09:53.553Z,17.17
2022-10-25T19:12:21.938Z,17.11
2022-10-25T19:14:50.334Z,17.02
2022-10-25T19:17:18.940Z,16.95
2022-10-25T19:19:47.006Z,16.93
2022-10-25T19:22:16.951Z,16.94
2022-10-25T19:24:45.094Z,17.03
2022-10-25T19:27:13.340Z,17.10
2022-10-25T19:29:42.007Z,16.98
2022-10-25T19:32:10.334Z,16.93
2022-10-25T19:34:39.020Z,17.04
2022-10-25T19:37:09.031Z,17.18
2022-10-25T19:39:39.114Z,16.94
2022-10-25T19:42:07.571Z,16.97
2022-10-25T19:44:36.128Z,17.11
2022-10-25T19:47:04.770Z,17.13
2022-10-25T19:49:33.125Z,17.10
2022-10-25T19:52:01.334Z,17.08
2022-10-25T19:54:29.926Z,17.01
2022-10-25T19:56:59.910Z,17.02
2022-10-25T19:59:28.314Z,16.90
2022-10-25T20:01:57.055Z,16.93
2022-10-25T20:04:25.559Z,16.91
2022-10-25T20:06:53.881Z,16.86
2022-10-25T20:09:22.176Z,16.85
2022-10-25T20:11:50.267Z,16.78
2022-10-25T20:14:19.888Z,16.82
2022-10-25T20:16:47.979Z,16.80
2022-10-25T20:19:16.446Z,16.67
2022-10-25T20:21:44.510Z,16.66
2022-10-25T20:24:12.643Z,16.76
2022-10-25T20:26:44.784Z,16.57
2022-10-25T20:29:18.651Z,16.53
2022-10-25T20:31:51.985Z,16.58
2022-10-25T20:34:20.686Z,16.54
2022-10-25T20:36:49.723Z,16.52
2022-10-25T20:39:18.113Z,16.55
2022-10-25T20:41:46.387Z,16.56
2022-10-25T20:44:14.890Z,16.22
2022-10-25T20:46:42.999Z,16.21
2022-10-25T20:49:12.675Z,16.21
2022-10-25T20:51:40.859Z,16.20
2022-10-25T20:54:10.199Z,16.12
2022-10-25T20:56:39.662Z,16.19
2022-10-25T20:59:08.458Z,16.21
2022-10-25T21:01:37.301Z,16.14
2022-10-25T21:04:06.235Z,16.20
2022-10-25T21:06:35.697Z,16.24
2022-10-25T21:09:04.147Z,16.16
2022-10-25T21:11:33.027Z,16.18
2022-10-25T21:14:01.198Z,16.03
2022-10-25T21:16:29.769Z,16.10
2022-10-25T21:18:58.191Z,16.15
2022-10-25T21:21:26.821Z,16.10
2022-10-25T21:23:58.138Z,16.03
2022-10-25T21:26:26.223Z,15.94
2022-10-25T21:28:54.587Z,15.90
2022-10-25T21:31:22.991Z,15.82
2022-10-25T21:33:52.519Z,15.85
2022-10-25T21:36:22.685Z,15.74
2022-10-25T21:38:50.874Z,15.59
2022-10-25T21:41:26.957Z,15.71
2022-10-25T21:43:56.758Z,15.68
2022-10-25T21:46:26.660Z,15.65
2022-10-25T21:48:56.306Z,15.70
2022-10-25T21:51:25.811Z,15.72
2022-10-25T21:53:55.335Z,15.64
2022-10-25T21:56:31.172Z,15.65
2022-10-25T21:59:00.518Z,15.57
2022-10-25T22:01:31.028Z,15.69
2022-10-25T22:03:59.423Z,15.56
2022-10-25T22:06:28.780Z,15.74
2022-10-25T22:08:57.866Z,15.60
2022-10-25T22:11:29.737Z,15.59
2022-10-25T22:13:59.193Z,15.54
2022-10-25T22:16:27.541Z,15.52
2022-10-25T22:18:57.904Z,15.43
2022-10-25T22:21:28.074Z,15.35
2022-10-25T22:23:56.167Z,15.32
2022-10-25T22:26:24.353Z,15.40
2022-10-25T22:28:55.250Z,15.39
2022-10-25T22:31:24.011Z,15.17
2022-10-25T22:33:55.311Z,15.32
2022-10-25T22:36:25.246Z,15.22
2022-10-25T22:38:53.918Z,15.30
2022-10-25T22:41:24.506Z,15.22
2022-10-25T22:43:54.389Z,15.16
2022-10-25T22:46:25.545Z,15.08
2022-10-25T22:48:54.811Z,14.82
2022-10-25T22:51:23.990Z,14.97
2022-10-25T22:53:52.287Z,15.01
2022-10-25T22:56:22.323Z,15.07
2022-10-25T22:58:52.329Z,14.82
2022-10-25T23:01:24.962Z,14.94
2022-10-25T23:03:55.864Z,14.99
2022-10-25T23:06:26.298Z,15.05
2022-10-25T23:08:55.226Z,14.96
2022-10-25T23:11:25.565Z,14.88
2022-10-25T23:13:54.232Z,14.82
2022-10-25T23:16:24.115Z,14.87
2022-10-25T23:18:52.670Z,14.78
2022-10-25T23:21:23.543Z,14.70
2022-10-25T23:23:53.121Z,14.82
2022-10-25T23:26:23.045Z,14.79
2022-10-25T23:28:51.215Z,14.66
2022-10-25T23:31:20.132Z,14.63
2022-10-25T23:33:52.192Z,14.61
2022-10-25T23:36:22.018Z,14.66
2022-10-25T23:38:51.292Z,14.63
2022-10-25T23:41:20.376Z,14.73
2022-10-25T23:43:48.527Z,14.72
2022-10-25T23:46:16.682Z,14.73
2022-10-25T23:48:44.846Z,14.69
2022-10-25T23:51:16.774Z,14.80
2022-10-25T23:53:45.966Z,14.83
2022-10-25T23:56:15.189Z,14.95
2022-10-25T23:58:43.483Z,14.95
